Edgar Springs, Missouri
Current Conditions -  °F | °C
As of 10:58 AM on Thursday 23 Oct 2014 (Local Time) from KTBN Reporting Station
Broken Clouds Broken Clouds  
Wind Chill: 56°   Ceiling: 4200
Heat Index: 56°   Visibility: 10mi
Dew Point: 47°   Wind: 9mph
Humidity: 70%   Direction: 170°S
Pressure: 30.19"   Gusts: NA
Location:  37.7°N, 91.87°W
Report Text: KTBN 231558Z AUTO 17008KT 10SM BKN042 BKN160 14/08 A3019 RMK AO2 SLP227 T01350081
Loading
Personal Weather Stations






























Interactive Weather Map
Tropical Storm Tracking
New forecast layout! Learn more

10-Day Weather Forecast

Advertisements
Track Severe Weather on mobile